Friday, September 21, 2018, 9:27 PM EDT
Back to Local

KBOS, Boston Logan International

Location: Boston, MA, United States Lat: 42.367
Local Time: 9:27 PM EDT ( 1:27 GMT) Lon: -71.017
Time Zone: US/Eastern Elev: 19 ft

Show me the last for .
Show Decoded

2018-09-21 20:54 METAR KBOS 220054Z 20014KT 10SM FEW013 SCT035 BKN140 19/16 A2997 RMK AO2 SLP150
                 T01940156 =
2018-09-21 19:54 METAR KBOS 212354Z 20015KT 10SM FEW032 BKN049 OVC250 19/15 A2999 RMK AO2 SLP156
                 T01940150 10222 20189 58027 =
2018-09-21 18:54 METAR KBOS 212254Z 19016KT 10SM FEW027 BKN050 OVC250 19/14 A3002 RMK AO2 SLP165
                 T01890139 =
2018-09-21 17:54 METAR KBOS 212154Z 20013G19KT 10SM FEW028 OVC046 19/14 A3005 RMK AO2 SLP176
                 T01940139 =
2018-09-21 16:54 METAR KBOS 212054Z 19015KT 10SM FEW026 OVC048 20/13 A3007 RMK AO2 SLP182
                 T02000133 56029 =
2018-09-21 15:54 METAR KBOS 211954Z 20015KT 10SM FEW029 BKN048 BKN250 21/12 A3010 RMK AO2 SLP193
                 T02110122 =
2018-09-21 14:54 METAR KBOS 211854Z 20012KT 10SM SCT032 BKN055 BKN250 21/13 A3013 RMK AO2 SLP201
                 T02110133 =
2018-09-21 13:54 METAR KBOS 211754Z 21010KT 10SM SCT035 BKN060 BKN250 22/13 A3016 RMK AO2 SLP212
                 T02170128 10228 20167 58033 =
2018-09-21 12:54 METAR KBOS 211654Z 17009KT 10SM FEW030 FEW070 SCT250 22/12 A3019 RMK AO2 SLP223
                 T02170122 =
2018-09-21 11:54 METAR KBOS 211554Z 16009KT 10SM FEW030 FEW070 SCT250 21/11 A3022 RMK AO2 SLP234
                 T02060111 =
2018-09-21 10:54 METAR KBOS 211454Z 15008KT 10SM FEW030 SCT070 SCT160 19/12 A3025 RMK AO2 SLP244
                 T01940117 58019 =
2018-09-21 09:54 METAR KBOS 211354Z 16010KT 10SM FEW030 SCT090 SCT160 19/12 A3029 RMK AO2 SLP256
                 T01890117 =
2018-09-21 08:54 METAR KBOS 211254Z 17007KT 10SM FEW035 SCT100 SCT160 18/12 A3031 RMK AO2 SLP262
                 T01780117 =
2018-09-21 07:54 METAR KBOS 211154Z 18007KT 10SM FEW035 BKN100 17/12 A3031 RMK AO2 SLP263
                 T01670117 10172 20161 51005 =
2018-09-21 06:54 METAR KBOS 211054Z 18007KT 10SM FEW035 BKN100 BKN220 17/12 A3031 RMK AO2 SLP262
                 T01670117 =
2018-09-21 05:54 METAR KBOS 210954Z 16006KT 10SM SCT050 BKN140 17/11 A3030 RMK AO2 SLP259
                 T01670111 =
2018-09-21 04:54 METAR KBOS 210854Z 16005KT 10SM SCT055 OVC140 17/12 A3029 RMK AO2 SLP258
                 T01670117 55003 =
2018-09-21 03:54 METAR KBOS 210754Z 15006KT 10SM BKN055 OVC140 17/12 A3029 RMK A02 SLP256
                 T01670122 =
2018-09-21 02:54 METAR KBOS 210654Z 16004KT 10SM OVC055 17/12 A3029 RMK AO2 SLP257 T01670122 =
2018-09-21 01:54 METAR KBOS 210554Z 15004KT 10SM OVC050 17/12 A3030 RMK AO2 SLP260 T01670122
                 10183 20167 50003 =
2018-09-21 00:54 METAR KBOS 210454Z 15005KT 10SM FEW050 BKN160 OVC190 17/12 A3031 RMK AO2 SLP264
                 T01720117 401890156 =
2018-09-20 23:54 METAR KBOS 210354Z 13005KT 10SM FEW050 BKN160 OVC190 17/12 A3031 RMK AO2 SLP264
                 T01720122 =
2018-09-20 22:54 METAR KBOS 210254Z 12010KT 10SM FEW050 BKN140 OVC180 17/12 A3029 RMK AO2 SLP257
                 T01720117 50002 =
2018-09-20 21:54 METAR KBOS 210154Z 10007KT 10SM FEW017 SCT050 BKN140 BKN190 OVC240 17/12 A3030
                 RMK AO2 SLP260 T01720117 =

Support USWX by starting your Amazon purchase here.